sensor_id;sensor_type;location;lat;lon;timestamp;pressure;altitude;pressure_sealevel;temperature;humidity
39295;BME280;52361;52.100;5.248;2023-04-21T00:01:48;101532.0;;;10.59;100.0
39295;BME280;52361;52.100;5.248;2023-04-21T00:03:25;101533.0;;;10.59;100.0
39295;BME280;52361;52.100;5.248;2023-04-21T00:05:01;101536.0;;;10.62;100.0
39295;BME280;52361;52.100;5.248;2023-04-21T00:08:14;101538.0;;;10.62;100.0
39295;BME280;52361;52.100;5.248;2023-04-21T00:09:50;101528.0;;;10.61;100.0
39295;BME280;52361;52.100;5.248;2023-04-21T00:11:27;101525.0;;;10.57;100.0
39295;BME280;52361;52.100;5.248;2023-04-21T00:16:15;101503.0;;;10.49;100.0
39295;BME280;52361;52.100;5.248;2023-04-21T00:17:51;101493.0;;;10.5;100.0
39295;BME280;52361;52.100;5.248;2023-04-21T00:21:04;101499.0;;;10.38;100.0
39295;BME280;52361;52.100;5.248;2023-04-21T00:22:39;101496.0;;;10.51;100.0
39295;BME280;52361;52.100;5.248;2023-04-21T00:24:16;101493.0;;;10.46;100.0
39295;BME280;52361;52.100;5.248;2023-04-21T00:25:52;101488.0;;;10.47;100.0
39295;BME280;52361;52.100;5.248;2023-04-21T00:29:04;101487.0;;;10.47;100.0
39295;BME280;52361;52.100;5.248;2023-04-21T00:30:40;101493.0;;;10.35;100.0
39295;BME280;52361;52.100;5.248;2023-04-21T00:32:16;101490.0;;;10.45;100.0
39295;BME280;52361;52.100;5.248;2023-04-21T00:35:28;101488.0;;;10.49;100.0
39295;BME280;52361;52.100;5.248;2023-04-21T00:37:05;101478.0;;;10.46;100.0
39295;BME280;52361;52.100;5.248;2023-04-21T00:38:41;101480.0;;;10.51;100.0
39295;BME280;52361;52.100;5.248;2023-04-21T00:41:53;101474.0;;;10.35;100.0
39295;BME280;52361;52.100;5.248;2023-04-21T00:43:29;101475.0;;;10.49;100.0
39295;BME280;52361;52.100;5.248;2023-04-21T00:45:06;101472.0;;;10.43;100.0
39295;BME280;52361;52.100;5.248;2023-04-21T00:46:42;101477.0;;;10.42;100.0
39295;BME280;52361;52.100;5.248;2023-04-21T00:49:55;101475.0;;;10.34;100.0
39295;BME280;52361;52.100;5.248;2023-04-21T00:51:33;101470.0;;;10.28;100.0
39295;BME280;52361;52.100;5.248;2023-04-21T00:53:11;101472.0;;;10.22;100.0
39295;BME280;52361;52.100;5.248;2023-04-21T00:56:27;101465.0;;;10.37;100.0
39295;BME280;52361;52.100;5.248;2023-04-21T00:58:05;101457.0;;;10.3;100.0
39295;BME280;52361;52.100;5.248;2023-04-21T00:59:41;101453.0;;;10.07;100.0
39295;BME280;52361;52.100;5.248;2023-04-21T01:02:54;101457.0;;;10.03;100.0
39295;BME280;52361;52.100;5.248;2023-04-21T01:04:31;101468.0;;;10.15;100.0
39295;BME280;52361;52.100;5.248;2023-04-21T01:06:07;101466.0;;;10.13;100.0
39295;BME280;52361;52.100;5.248;2023-04-21T01:07:44;101459.0;;;10.13;100.0
39295;BME280;52361;52.100;5.248;2023-04-21T01:10:57;101450.0;;;10.35;100.0
39295;BME280;52361;52.100;5.248;2023-04-21T01:12:41;101449.0;;;10.01;100.0
39295;BME280;52361;52.100;5.248;2023-04-21T01:14:17;101455.0;;;9.85;100.0
39295;BME280;52361;52.100;5.248;2023-04-21T01:17:29;101451.0;;;9.93;100.0
39295;BME280;52361;52.100;5.248;2023-04-21T01:19:05;101455.0;;;10.11;100.0
39295;BME280;52361;52.100;5.248;2023-04-21T01:20:41;101447.0;;;9.98;100.0
39295;BME280;52361;52.100;5.248;2023-04-21T01:22:17;101436.0;;;10.23;100.0
39295;BME280;52361;52.100;5.248;2023-04-21T01:25:30;101442.0;;;10.24;100.0
39295;BME280;52361;52.100;5.248;2023-04-21T01:27:08;101441.0;;;10.35;100.0
39295;BME280;52361;52.100;5.248;2023-04-21T01:28:45;101440.0;;;10.3;100.0
39295;BME280;52361;52.100;5.248;2023-04-21T01:31:57;101433.0;;;10.34;100.0
39295;BME280;52361;52.100;5.248;2023-04-21T01:33:33;101424.0;;;10.31;100.0
39295;BME280;52361;52.100;5.248;2023-04-21T01:35:09;101436.0;;;10.21;100.0
39295;BME280;52361;52.100;5.248;2023-04-21T01:38:22;101436.0;;;10.06;100.0
39295;BME280;52361;52.100;5.248;2023-04-21T01:40:00;101430.0;;;10.19;100.0
39295;BME280;52361;52.100;5.248;2023-04-21T01:41:39;101433.0;;;10.17;100.0
39295;BME280;52361;52.100;5.248;2023-04-21T01:43:16;101430.0;;;10.26;100.0
39295;BME280;52361;52.100;5.248;2023-04-21T01:46:32;101425.0;;;10.35;100.0
39295;BME280;52361;52.100;5.248;2023-04-21T01:48:08;101422.0;;;10.31;100.0
39295;BME280;52361;52.100;5.248;2023-04-21T01:49:44;101420.0;;;10.29;100.0
39295;BME280;52361;52.100;5.248;2023-04-21T01:52:57;101415.0;;;10.27;100.0
39295;BME280;52361;52.100;5.248;2023-04-21T01:54:33;101417.0;;;10.25;100.0
39295;BME280;52361;52.100;5.248;2023-04-21T01:56:12;101417.0;;;10.17;100.0
39295;BME280;52361;52.100;5.248;2023-04-21T01:57:48;101412.0;;;10.16;100.0
39295;BME280;52361;52.100;5.248;2023-04-21T02:01:01;101407.0;;;10.31;100.0
39295;BME280;52361;52.100;5.248;2023-04-21T02:02:37;101408.0;;;10.26;100.0
39295;BME280;52361;52.100;5.248;2023-04-21T02:04:14;101410.0;;;10.22;100.0
39295;BME280;52361;52.100;5.248;2023-04-21T02:07:27;101411.0;;;10.3;100.0
39295;BME280;52361;52.100;5.248;2023-04-21T02:09:03;101412.0;;;10.31;100.0
39295;BME280;52361;52.100;5.248;2023-04-21T02:10:39;101405.0;;;10.36;100.0
39295;BME280;52361;52.100;5.248;2023-04-21T02:13:51;101412.0;;;10.44;100.0
39295;BME280;52361;52.100;5.248;2023-04-21T02:15:29;101420.0;;;10.38;100.0
39295;BME280;52361;52.100;5.248;2023-04-21T02:17:05;101412.0;;;10.36;100.0
39295;BME280;52361;52.100;5.248;2023-04-21T02:20:17;101414.0;;;10.21;100.0
39295;BME280;52361;52.100;5.248;2023-04-21T02:21:53;101417.0;;;10.22;100.0
39295;BME280;52361;52.100;5.248;2023-04-21T02:23:29;101422.0;;;10.19;100.0
39295;BME280;52361;52.100;5.248;2023-04-21T02:25:06;101409.0;;;10.21;100.0
39295;BME280;52361;52.100;5.248;2023-04-21T02:28:17;101410.0;;;10.19;100.0
39295;BME280;52361;52.100;5.248;2023-04-21T02:29:54;101415.0;;;10.19;100.0
39295;BME280;52361;52.100;5.248;2023-04-21T02:31:30;101405.0;;;10.17;100.0
39295;BME280;52361;52.100;5.248;2023-04-21T02:34:42;101402.0;;;10.23;100.0
39295;BME280;52361;52.100;5.248;2023-04-21T02:36:18;101399.0;;;10.26;100.0
39295;BME280;52361;52.100;5.248;2023-04-21T02:37:54;101397.0;;;10.17;100.0
39295;BME280;52361;52.100;5.248;2023-04-21T02:41:07;101397.0;;;10.17;100.0
39295;BME280;52361;52.100;5.248;2023-04-21T02:42:43;101402.0;;;10.23;100.0
39295;BME280;52361;52.100;5.248;2023-04-21T02:44:19;101403.0;;;10.3;100.0
39295;BME280;52361;52.100;5.248;2023-04-21T02:45:55;101391.0;;;10.14;100.0
39295;BME280;52361;52.100;5.248;2023-04-21T02:49:09;101391.0;;;10.09;100.0
39295;BME280;52361;52.100;5.248;2023-04-21T02:50:45;101398.0;;;10.11;100.0
39295;BME280;52361;52.100;5.248;2023-04-21T02:52:22;101394.0;;;10.22;100.0
39295;BME280;52361;52.100;5.248;2023-04-21T02:55:34;101391.0;;;10.21;100.0
39295;BME280;52361;52.100;5.248;2023-04-21T02:57:10;101387.0;;;10.06;100.0
39295;BME280;52361;52.100;5.248;2023-04-21T02:58:46;101382.0;;;9.94;100.0
39295;BME280;52361;52.100;5.248;2023-04-21T03:01:58;101386.0;;;10.09;100.0
39295;BME280;52361;52.100;5.248;2023-04-21T03:03:34;101383.0;;;10.14;100.0
39295;BME280;52361;52.100;5.248;2023-04-21T03:05:11;101380.0;;;10.19;100.0
39295;BME280;52361;52.100;5.248;2023-04-21T03:08:23;101383.0;;;10.17;100.0
39295;BME280;52361;52.100;5.248;2023-04-21T03:10:00;101382.0;;;10.22;100.0
39295;BME280;52361;52.100;5.248;2023-04-21T03:11:36;101386.0;;;10.14;100.0
39295;BME280;52361;52.100;5.248;2023-04-21T03:13:12;101385.0;;;10.15;100.0
39295;BME280;52361;52.100;5.248;2023-04-21T03:16:24;101392.0;;;10.11;100.0
39295;BME280;52361;52.100;5.248;2023-04-21T03:18:01;101391.0;;;10.19;100.0
39295;BME280;52361;52.100;5.248;2023-04-21T03:19:37;101394.0;;;10.17;100.0
39295;BME280;52361;52.100;5.248;2023-04-21T03:22:52;101393.0;;;10.27;100.0
39295;BME280;52361;52.100;5.248;2023-04-21T03:24:28;101381.0;;;10.24;100.0
39295;BME280;52361;52.100;5.248;2023-04-21T03:26:06;101387.0;;;10.3;100.0
39295;BME280;52361;52.100;5.248;2023-04-21T03:29:19;101381.0;;;10.39;100.0
39295;BME280;52361;52.100;5.248;2023-04-21T03:30:55;101372.0;;;10.34;100.0
39295;BME280;52361;52.100;5.248;2023-04-21T03:32:31;101383.0;;;10.24;100.0
39295;BME280;52361;52.100;5.248;2023-04-21T03:34:07;101368.0;;;10.32;100.0
39295;BME280;52361;52.100;5.248;2023-04-21T03:37:19;101372.0;;;10.37;100.0
39295;BME280;52361;52.100;5.248;2023-04-21T03:38:55;101369.0;;;10.38;100.0
39295;BME280;52361;52.100;5.248;2023-04-21T03:40:31;101372.0;;;10.22;100.0
39295;BME280;52361;52.100;5.248;2023-04-21T03:43:43;101355.0;;;10.3;100.0
39295;BME280;52361;52.100;5.248;2023-04-21T03:45:19;101361.0;;;10.27;100.0
39295;BME280;52361;52.100;5.248;2023-04-21T03:46:55;101356.0;;;10.18;100.0
39295;BME280;52361;52.100;5.248;2023-04-21T03:50:08;101355.0;;;10.19;100.0
39295;BME280;52361;52.100;5.248;2023-04-21T03:51:43;101351.0;;;10.17;100.0
39295;BME280;52361;52.100;5.248;2023-04-21T03:53:20;101355.0;;;10.0;100.0
39295;BME280;52361;52.100;5.248;2023-04-21T03:56:32;101352.0;;;9.94;100.0
39295;BME280;52361;52.100;5.248;2023-04-21T03:58:08;101341.0;;;10.25;100.0
39295;BME280;52361;52.100;5.248;2023-04-21T03:59:44;101345.0;;;10.17;100.0
39295;BME280;52361;52.100;5.248;2023-04-21T04:01:20;101344.0;;;9.98;100.0
39295;BME280;52361;52.100;5.248;2023-04-21T04:04:33;101346.0;;;10.07;100.0
39295;BME280;52361;52.100;5.248;2023-04-21T04:06:09;101340.0;;;10.23;100.0
39295;BME280;52361;52.100;5.248;2023-04-21T04:07:45;101342.0;;;10.23;100.0
39295;BME280;52361;52.100;5.248;2023-04-21T04:10:56;101333.0;;;10.14;100.0
39295;BME280;52361;52.100;5.248;2023-04-21T04:12:32;101336.0;;;10.24;100.0
39295;BME280;52361;52.100;5.248;2023-04-21T04:14:08;101339.0;;;10.24;100.0
39295;BME280;52361;52.100;5.248;2023-04-21T04:17:21;101340.0;;;10.29;100.0
39295;BME280;52361;52.100;5.248;2023-04-21T04:18:57;101333.0;;;10.17;100.0
39295;BME280;52361;52.100;5.248;2023-04-21T04:20:33;101333.0;;;10.26;100.0
39295;BME280;52361;52.100;5.248;2023-04-21T04:22:09;101331.0;;;10.24;100.0
39295;BME280;52361;52.100;5.248;2023-04-21T04:25:22;101340.0;;;10.42;100.0
39295;BME280;52361;52.100;5.248;2023-04-21T04:26:57;101334.0;;;10.42;100.0
39295;BME280;52361;52.100;5.248;2023-04-21T04:28:34;101331.0;;;10.3;100.0
39295;BME280;52361;52.100;5.248;2023-04-21T04:31:48;101330.0;;;10.35;100.0
39295;BME280;52361;52.100;5.248;2023-04-21T04:33:24;101339.0;;;10.24;100.0
39295;BME280;52361;52.100;5.248;2023-04-21T04:35:00;101326.0;;;10.16;100.0
39295;BME280;52361;52.100;5.248;2023-04-21T04:38:12;101336.0;;;10.21;100.0
39295;BME280;52361;52.100;5.248;2023-04-21T04:39:51;101336.0;;;10.03;100.0
39295;BME280;52361;52.100;5.248;2023-04-21T04:41:28;101337.0;;;10.17;100.0
39295;BME280;52361;52.100;5.248;2023-04-21T04:43:05;101336.0;;;10.21;100.0
39295;BME280;52361;52.100;5.248;2023-04-21T04:46:17;101335.0;;;10.15;100.0
39295;BME280;52361;52.100;5.248;2023-04-21T04:47:53;101336.0;;;10.23;100.0
39295;BME280;52361;52.100;5.248;2023-04-21T04:49:29;101337.0;;;10.05;100.0
39295;BME280;52361;52.100;5.248;2023-04-21T04:52:42;101335.0;;;10.15;100.0
39295;BME280;52361;52.100;5.248;2023-04-21T04:54:18;101335.0;;;10.01;100.0
39295;BME280;52361;52.100;5.248;2023-04-21T04:55:54;101336.0;;;10.14;100.0
39295;BME280;52361;52.100;5.248;2023-04-21T04:59:06;101338.0;;;10.22;100.0
39295;BME280;52361;52.100;5.248;2023-04-21T05:00:42;101342.0;;;9.98;100.0
39295;BME280;52361;52.100;5.248;2023-04-21T05:02:18;101339.0;;;10.25;100.0
39295;BME280;52361;52.100;5.248;2023-04-21T05:05:31;101339.0;;;10.23;100.0
39295;BME280;52361;52.100;5.248;2023-04-21T05:07:08;101338.0;;;10.24;100.0
39295;BME280;52361;52.100;5.248;2023-04-21T05:08:44;101346.0;;;10.43;100.0
39295;BME280;52361;52.100;5.248;2023-04-21T05:10:20;101346.0;;;10.28;100.0
39295;BME280;52361;52.100;5.248;2023-04-21T05:13:32;101349.0;;;10.31;100.0
39295;BME280;52361;52.100;5.248;2023-04-21T05:15:09;101352.0;;;10.39;100.0
39295;BME280;52361;52.100;5.248;2023-04-21T05:16:44;101355.0;;;10.38;100.0
39295;BME280;52361;52.100;5.248;2023-04-21T05:19:58;101352.0;;;10.39;100.0
39295;BME280;52361;52.100;5.248;2023-04-21T05:21:34;101350.0;;;10.23;100.0
39295;BME280;52361;52.100;5.248;2023-04-21T05:23:10;101355.0;;;10.25;100.0
39295;BME280;52361;52.100;5.248;2023-04-21T05:26:23;101357.0;;;10.22;100.0
39295;BME280;52361;52.100;5.248;2023-04-21T05:27:59;101357.0;;;10.37;100.0
39295;BME280;52361;52.100;5.248;2023-04-21T05:29:35;101355.0;;;10.39;100.0
39295;BME280;52361;52.100;5.248;2023-04-21T05:31:12;101358.0;;;10.18;100.0
39295;BME280;52361;52.100;5.248;2023-04-21T05:34:23;101358.0;;;10.15;100.0
39295;BME280;52361;52.100;5.248;2023-04-21T05:35:59;101365.0;;;10.36;100.0
39295;BME280;52361;52.100;5.248;2023-04-21T05:37:35;101362.0;;;10.29;100.0
39295;BME280;52361;52.100;5.248;2023-04-21T05:40:52;101364.0;;;10.43;100.0
39295;BME280;52361;52.100;5.248;2023-04-21T05:42:28;101357.0;;;10.46;100.0
39295;BME280;52361;52.100;5.248;2023-04-21T05:44:05;101358.0;;;10.37;100.0
39295;BME280;52361;52.100;5.248;2023-04-21T05:47:17;101362.0;;;10.39;100.0
39295;BME280;52361;52.100;5.248;2023-04-21T05:48:53;101366.0;;;10.4;100.0
39295;BME280;52361;52.100;5.248;2023-04-21T05:50:29;101369.0;;;10.55;100.0
39295;BME280;52361;52.100;5.248;2023-04-21T05:52:07;101373.0;;;10.33;100.0
39295;BME280;52361;52.100;5.248;2023-04-21T05:55:21;101382.0;;;10.39;100.0
39295;BME280;52361;52.100;5.248;2023-04-21T05:56:57;101387.0;;;10.37;100.0
39295;BME280;52361;52.100;5.248;2023-04-21T05:58:33;101382.0;;;10.36;100.0
39295;BME280;52361;52.100;5.248;2023-04-21T06:01:46;101388.0;;;10.48;100.0
39295;BME280;52361;52.100;5.248;2023-04-21T06:03:22;101384.0;;;10.36;100.0
39295;BME280;52361;52.100;5.248;2023-04-21T06:04:58;101382.0;;;10.44;100.0
39295;BME280;52361;52.100;5.248;2023-04-21T06:08:11;101383.0;;;10.46;100.0
39295;BME280;52361;52.100;5.248;2023-04-21T06:09:49;101381.0;;;10.44;100.0
39295;BME280;52361;52.100;5.248;2023-04-21T06:11:25;101382.0;;;10.61;100.0
39295;BME280;52361;52.100;5.248;2023-04-21T06:13:01;101384.0;;;10.63;100.0
39295;BME280;52361;52.100;5.248;2023-04-21T06:16:13;101387.0;;;10.79;100.0
39295;BME280;52361;52.100;5.248;2023-04-21T06:17:51;101386.0;;;10.79;100.0
39295;BME280;52361;52.100;5.248;2023-04-21T06:19:27;101377.0;;;10.93;100.0
39295;BME280;52361;52.100;5.248;2023-04-21T06:22:40;101372.0;;;10.9;100.0
39295;BME280;52361;52.100;5.248;2023-04-21T06:24:16;101369.0;;;10.87;100.0
39295;BME280;52361;52.100;5.248;2023-04-21T06:26:01;101370.0;;;10.91;100.0
39295;BME280;52361;52.100;5.248;2023-04-21T06:29:14;101374.0;;;10.86;100.0
39295;BME280;52361;52.100;5.248;2023-04-21T06:30:50;101377.0;;;10.85;100.0
39295;BME280;52361;52.100;5.248;2023-04-21T06:32:26;101376.0;;;10.89;100.0
39295;BME280;52361;52.100;5.248;2023-04-21T06:34:03;101375.0;;;10.8;100.0
39295;BME280;52361;52.100;5.248;2023-04-21T06:37:15;101371.0;;;11.04;100.0
39295;BME280;52361;52.100;5.248;2023-04-21T06:38:51;101370.0;;;11.0;100.0
39295;BME280;52361;52.100;5.248;2023-04-21T06:40:27;101374.0;;;11.18;100.0
39295;BME280;52361;52.100;5.248;2023-04-21T06:43:40;101375.0;;;11.1;100.0
39295;BME280;52361;52.100;5.248;2023-04-21T06:45:16;101371.0;;;11.16;100.0
39295;BME280;52361;52.100;5.248;2023-04-21T06:46:53;101373.0;;;11.05;100.0
39295;BME280;52361;52.100;5.248;2023-04-21T06:50:06;101372.0;;;11.07;100.0
39295;BME280;52361;52.100;5.248;2023-04-21T06:51:42;101376.0;;;11.18;100.0
39295;BME280;52361;52.100;5.248;2023-04-21T06:53:18;101374.0;;;11.24;100.0
39295;BME280;52361;52.100;5.248;2023-04-21T06:54:55;101372.0;;;11.12;100.0
39295;BME280;52361;52.100;5.248;2023-04-21T06:58:06;101370.0;;;11.02;100.0
39295;BME280;52361;52.100;5.248;2023-04-21T06:59:43;101372.0;;;11.18;100.0
39295;BME280;52361;52.100;5.248;2023-04-21T07:01:19;101367.0;;;11.21;100.0
39295;BME280;52361;52.100;5.248;2023-04-21T07:04:31;101370.0;;;11.23;100.0
39295;BME280;52361;52.100;5.248;2023-04-21T07:06:07;101359.0;;;11.36;100.0
39295;BME280;52361;52.100;5.248;2023-04-21T07:07:43;101362.0;;;11.42;100.0
39295;BME280;52361;52.100;5.248;2023-04-21T07:10:55;101367.0;;;11.47;100.0
39295;BME280;52361;52.100;5.248;2023-04-21T07:12:32;101364.0;;;11.58;100.0
39295;BME280;52361;52.100;5.248;2023-04-21T07:14:08;101371.0;;;11.54;100.0
39295;BME280;52361;52.100;5.248;2023-04-21T07:17:20;101361.0;;;11.65;100.0
39295;BME280;52361;52.100;5.248;2023-04-21T07:18:56;101370.0;;;11.44;100.0
39295;BME280;52361;52.100;5.248;2023-04-21T07:20:32;101373.0;;;11.73;100.0
39295;BME280;52361;52.100;5.248;2023-04-21T07:22:08;101369.0;;;11.74;100.0
39295;BME280;52361;52.100;5.248;2023-04-21T07:25:21;101366.0;;;11.54;100.0
39295;BME280;52361;52.100;5.248;2023-04-21T07:26:57;101361.0;;;11.56;100.0
39295;BME280;52361;52.100;5.248;2023-04-21T07:28:33;101363.0;;;11.67;100.0
39295;BME280;52361;52.100;5.248;2023-04-21T07:31:46;101361.0;;;11.69;100.0
39295;BME280;52361;52.100;5.248;2023-04-21T07:33:22;101370.0;;;12.0;100.0
39295;BME280;52361;52.100;5.248;2023-04-21T07:34:58;101368.0;;;11.96;100.0
39295;BME280;52361;52.100;5.248;2023-04-21T07:38:11;101370.0;;;11.99;100.0
39295;BME280;52361;52.100;5.248;2023-04-21T07:39:47;101377.0;;;12.08;100.0
39295;BME280;52361;52.100;5.248;2023-04-21T07:41:23;101374.0;;;12.21;100.0
39295;BME280;52361;52.100;5.248;2023-04-21T07:42:59;101380.0;;;12.35;100.0
39295;BME280;52361;52.100;5.248;2023-04-21T07:46:12;101375.0;;;12.52;100.0
39295;BME280;52361;52.100;5.248;2023-04-21T07:47:47;101374.0;;;12.81;100.0
39295;BME280;52361;52.100;5.248;2023-04-21T07:49:24;101377.0;;;12.85;100.0
39295;BME280;52361;52.100;5.248;2023-04-21T07:52:37;101383.0;;;12.79;100.0
39295;BME280;52361;52.100;5.248;2023-04-21T07:54:13;101385.0;;;13.08;100.0
39295;BME280;52361;52.100;5.248;2023-04-21T07:55:49;101378.0;;;12.99;100.0
39295;BME280;52361;52.100;5.248;2023-04-21T07:59:01;101382.0;;;13.07;100.0
39295;BME280;52361;52.100;5.248;2023-04-21T08:00:40;101383.0;;;13.0;100.0
39295;BME280;52361;52.100;5.248;2023-04-21T08:02:18;101378.0;;;13.12;100.0
39295;BME280;52361;52.100;5.248;2023-04-21T08:03:56;101372.0;;;12.89;100.0
39295;BME280;52361;52.100;5.248;2023-04-21T08:07:12;101376.0;;;13.04;100.0
39295;BME280;52361;52.100;5.248;2023-04-21T08:08:49;101374.0;;;12.81;100.0
39295;BME280;52361;52.100;5.248;2023-04-21T08:10:26;101365.0;;;12.93;100.0
39295;BME280;52361;52.100;5.248;2023-04-21T08:13:42;101360.0;;;12.85;100.0
39295;BME280;52361;52.100;5.248;2023-04-21T08:15:20;101355.0;;;12.96;100.0
39295;BME280;52361;52.100;5.248;2023-04-21T08:16:57;101361.0;;;12.99;100.0
39295;BME280;52361;52.100;5.248;2023-04-21T08:18:34;101370.0;;;13.22;100.0
39295;BME280;52361;52.100;5.248;2023-04-21T08:21:49;101367.0;;;13.04;100.0
39295;BME280;52361;52.100;5.248;2023-04-21T08:23:27;101368.0;;;13.29;100.0
39295;BME280;52361;52.100;5.248;2023-04-21T08:25:04;101366.0;;;13.38;100.0
39295;BME280;52361;52.100;5.248;2023-04-21T08:28:18;101364.0;;;13.28;100.0
39295;BME280;52361;52.100;5.248;2023-04-21T08:29:56;101370.0;;;13.44;100.0
39295;BME280;52361;52.100;5.248;2023-04-21T08:31:34;101366.0;;;13.29;100.0
39295;BME280;52361;52.100;5.248;2023-04-21T08:33:10;101364.0;;;13.22;100.0
39295;BME280;52361;52.100;5.248;2023-04-21T08:36:26;101364.0;;;13.49;100.0
39295;BME280;52361;52.100;5.248;2023-04-21T08:38:04;101368.0;;;13.5;100.0
39295;BME280;52361;52.100;5.248;2023-04-21T08:39:42;101368.0;;;13.33;100.0
39295;BME280;52361;52.100;5.248;2023-04-21T08:42:58;101371.0;;;13.43;100.0
39295;BME280;52361;52.100;5.248;2023-04-21T08:44:37;101371.0;;;13.55;100.0
39295;BME280;52361;52.100;5.248;2023-04-21T08:46:13;101363.0;;;13.61;100.0
39295;BME280;52361;52.100;5.248;2023-04-21T08:47:51;101361.0;;;13.64;100.0
39295;BME280;52361;52.100;5.248;2023-04-21T08:51:09;101362.0;;;13.8;100.0
39295;BME280;52361;52.100;5.248;2023-04-21T08:52:46;101366.0;;;13.91;100.0
39295;BME280;52361;52.100;5.248;2023-04-21T08:54:24;101369.0;;;13.93;100.0
39295;BME280;52361;52.100;5.248;2023-04-21T08:57:40;101366.0;;;13.95;100.0
39295;BME280;52361;52.100;5.248;2023-04-21T08:59:18;101363.0;;;13.91;100.0
39295;BME280;52361;52.100;5.248;2023-04-21T09:00:55;101353.0;;;14.17;100.0
39295;BME280;52361;52.100;5.248;2023-04-21T09:02:51;101351.0;;;14.3;100.0
39295;BME280;52361;52.100;5.248;2023-04-21T09:06:08;101346.0;;;14.39;100.0
39295;BME280;52361;52.100;5.248;2023-04-21T09:07:46;101348.0;;;14.28;100.0
39295;BME280;52361;52.100;5.248;2023-04-21T09:09:24;101351.0;;;14.61;100.0
39295;BME280;52361;52.100;5.248;2023-04-21T09:11:02;101355.0;;;14.64;100.0
39295;BME280;52361;52.100;5.248;2023-04-21T09:14:18;101355.0;;;14.74;100.0
39295;BME280;52361;52.100;5.248;2023-04-21T09:15:55;101353.0;;;14.77;100.0
39295;BME280;52361;52.100;5.248;2023-04-21T09:17:33;101360.0;;;14.98;100.0
39295;BME280;52361;52.100;5.248;2023-04-21T09:21:00;101361.0;;;15.05;100.0
39295;BME280;52361;52.100;5.248;2023-04-21T09:22:42;101353.0;;;15.2;100.0
39295;BME280;52361;52.100;5.248;2023-04-21T09:24:21;101347.0;;;15.02;100.0
39295;BME280;52361;52.100;5.248;2023-04-21T09:26:01;101352.0;;;15.09;100.0
39295;BME280;52361;52.100;5.248;2023-04-21T09:27:40;101355.0;;;14.75;100.0
39295;BME280;52361;52.100;5.248;2023-04-21T09:30:57;101348.0;;;14.91;100.0
39295;BME280;52361;52.100;5.248;2023-04-21T09:32:36;101352.0;;;14.72;99.9
39295;BME280;52361;52.100;5.248;2023-04-21T09:34:17;101355.0;;;15.08;100.0
39295;BME280;52361;52.100;5.248;2023-04-21T09:37:32;101356.0;;;15.26;100.0
39295;BME280;52361;52.100;5.248;2023-04-21T09:39:09;101355.0;;;15.17;100.0
39295;BME280;52361;52.100;5.248;2023-04-21T09:40:55;101347.0;;;15.33;100.0
39295;BME280;52361;52.100;5.248;2023-04-21T09:42:33;101355.0;;;15.29;96.37
39295;BME280;52361;52.100;5.248;2023-04-21T09:45:49;101350.0;;;15.08;97.65
39295;BME280;52361;52.100;5.248;2023-04-21T09:47:28;101352.0;;;15.18;98.18
39295;BME280;52361;52.100;5.248;2023-04-21T09:49:06;101348.0;;;15.36;98.84
39295;BME280;52361;52.100;5.248;2023-04-21T09:50:46;101347.0;;;15.58;100.0
39295;BME280;52361;52.100;5.248;2023-04-21T09:54:09;101338.0;;;15.38;99.86
39295;BME280;52361;52.100;5.248;2023-04-21T09:55:55;101335.0;;;15.63;100.0
39295;BME280;52361;52.100;5.248;2023-04-21T09:57:37;101333.0;;;15.49;100.0
39295;BME280;52361;52.100;5.248;2023-04-21T09:59:19;101338.0;;;15.43;100.0
39295;BME280;52361;52.100;5.248;2023-04-21T10:02:43;101339.0;;;15.06;100.0
39295;BME280;52361;52.100;5.248;2023-04-21T10:04:20;101332.0;;;15.24;100.0
39295;BME280;52361;52.100;5.248;2023-04-21T10:06:01;101328.0;;;15.43;100.0
39295;BME280;52361;52.100;5.248;2023-04-21T10:07:38;101335.0;;;15.63;100.0
39295;BME280;52361;52.100;5.248;2023-04-21T10:10:59;101338.0;;;15.69;100.0
39295;BME280;52361;52.100;5.248;2023-04-21T10:12:37;101333.0;;;15.64;99.51
39295;BME280;52361;52.100;5.248;2023-04-21T10:14:13;101337.0;;;15.67;99.06
39295;BME280;52361;52.100;5.248;2023-04-21T10:16:00;101339.0;;;15.87;98.78
39295;BME280;52361;52.100;5.248;2023-04-21T10:19:22;101331.0;;;16.13;99.88
39295;BME280;52361;52.100;5.248;2023-04-21T10:21:07;101323.0;;;16.38;95.67
39295;BME280;52361;52.100;5.248;2023-04-21T10:22:56;101333.0;;;16.29;95.47
39295;BME280;52361;52.100;5.248;2023-04-21T10:24:36;101333.0;;;16.27;95.39
39295;BME280;52361;52.100;5.248;2023-04-21T10:26:20;101325.0;;;16.11;95.33
39295;BME280;52361;52.100;5.248;2023-04-21T10:29:35;101326.0;;;15.75;96.02
39295;BME280;52361;52.100;5.248;2023-04-21T10:31:18;101320.0;;;15.69;94.56
39295;BME280;52361;52.100;5.248;2023-04-21T10:33:01;101317.0;;;15.58;93.18
39295;BME280;52361;52.100;5.248;2023-04-21T10:34:40;101318.0;;;15.65;94.11
39295;BME280;52361;52.100;5.248;2023-04-21T10:38:01;101318.0;;;15.71;96.18
39295;BME280;52361;52.100;5.248;2023-04-21T10:39:44;101320.0;;;15.56;94.74
39295;BME280;52361;52.100;5.248;2023-04-21T10:41:35;101318.0;;;15.57;95.22
39295;BME280;52361;52.100;5.248;2023-04-21T10:43:41;101317.0;;;15.41;94.8
39295;BME280;52361;52.100;5.248;2023-04-21T10:45:24;101314.0;;;15.41;96.35
39295;BME280;52361;52.100;5.248;2023-04-21T10:48:51;101309.0;;;15.48;96.81
39295;BME280;52361;52.100;5.248;2023-04-21T10:50:29;101306.0;;;15.33;98.19
39295;BME280;52361;52.100;5.248;2023-04-21T10:52:08;101310.0;;;15.35;97.75
39295;BME280;52361;52.100;5.248;2023-04-21T10:53:46;101310.0;;;15.21;97.4
39295;BME280;52361;52.100;5.248;2023-04-21T10:57:05;101305.0;;;15.28;97.71
39295;BME280;52361;52.100;5.248;2023-04-21T10:58:44;101301.0;;;15.51;98.39
39295;BME280;52361;52.100;5.248;2023-04-21T11:00:24;101300.0;;;15.71;99.47
39295;BME280;52361;52.100;5.248;2023-04-21T11:02:01;101292.0;;;15.95;97.73
39295;BME280;52361;52.100;5.248;2023-04-21T11:05:17;101297.0;;;16.02;95.18
39295;BME280;52361;52.100;5.248;2023-04-21T11:07:05;101295.0;;;16.02;96.17